sensor_id;sensor_type;location;lat;lon;timestamp;pressure;altitude;pressure_sealevel;temperature;humidity
32131;BME280;18639;50.716;7.086;2023-05-21T00:02:01;100439.91;;;12.82;100.00
32131;BME280;18639;50.716;7.086;2023-05-21T00:04:29;100438.47;;;12.78;100.00
32131;BME280;18639;50.716;7.086;2023-05-21T00:06:56;100430.00;;;12.76;100.00
32131;BME280;18639;50.716;7.086;2023-05-21T00:09:23;100455.41;;;12.95;100.00
32131;BME280;18639;50.716;7.086;2023-05-21T00:11:48;100450.56;;;12.90;100.00
32131;BME280;18639;50.716;7.086;2023-05-21T00:14:14;100407.53;;;12.64;100.00
32131;BME280;18639;50.716;7.086;2023-05-21T00:16:39;100449.00;;;12.88;100.00
32131;BME280;18639;50.716;7.086;2023-05-21T00:19:04;100413.22;;;12.69;100.00
32131;BME280;18639;50.716;7.086;2023-05-21T00:21:30;100397.16;;;12.64;100.00
32131;BME280;18639;50.716;7.086;2023-05-21T00:23:55;100439.47;;;12.88;100.00
32131;BME280;18639;50.716;7.086;2023-05-21T00:26:21;100421.06;;;12.80;100.00
32131;BME280;18639;50.716;7.086;2023-05-21T00:28:48;100439.47;;;12.88;100.00
32131;BME280;18639;50.716;7.086;2023-05-21T00:31:13;100433.44;;;12.88;100.00
32131;BME280;18639;50.716;7.086;2023-05-21T00:33:40;100414.44;;;12.76;100.00
32131;BME280;18639;50.716;7.086;2023-05-21T00:36:05;100395.06;;;12.69;100.00
32131;BME280;18639;50.716;7.086;2023-05-21T00:38:30;100403.00;;;12.79;100.00
32131;BME280;18639;50.716;7.086;2023-05-21T00:40:59;100405.69;;;12.77;100.00
32131;BME280;18639;50.716;7.086;2023-05-21T00:43:25;100392.38;;;12.71;100.00
32131;BME280;18639;50.716;7.086;2023-05-21T00:45:51;100392.13;;;12.74;100.00
32131;BME280;18639;50.716;7.086;2023-05-21T00:48:19;100400.50;;;12.77;100.00
32131;BME280;18639;50.716;7.086;2023-05-21T00:50:45;100383.97;;;12.67;100.00
32131;BME280;18639;50.716;7.086;2023-05-21T00:53:11;100398.88;;;12.76;100.00
32131;BME280;18639;50.716;7.086;2023-05-21T00:55:38;100400.50;;;12.77;100.00
32131;BME280;18639;50.716;7.086;2023-05-21T00:58:03;100410.19;;;12.75;100.00
32131;BME280;18639;50.716;7.086;2023-05-21T01:00:32;100414.69;;;12.84;100.00
32131;BME280;18639;50.716;7.086;2023-05-21T01:02:57;100391.19;;;12.75;100.00
32131;BME280;18639;50.716;7.086;2023-05-21T01:05:23;100392.97;;;12.74;100.00
32131;BME280;18639;50.716;7.086;2023-05-21T01:07:48;100374.66;;;12.64;100.00
32131;BME280;18639;50.716;7.086;2023-05-21T01:10:13;100404.06;;;12.76;100.00
32131;BME280;18639;50.716;7.086;2023-05-21T01:12:41;100387.28;;;12.69;100.00
32131;BME280;18639;50.716;7.086;2023-05-21T01:15:08;100395.47;;;12.76;100.00
32131;BME280;18639;50.716;7.086;2023-05-21T01:17:35;100350.28;;;12.43;100.00
32131;BME280;18639;50.716;7.086;2023-05-21T01:20:01;100397.47;;;12.83;100.00
32131;BME280;18639;50.716;7.086;2023-05-21T01:22:34;100403.59;;;12.82;100.00
32131;BME280;18639;50.716;7.086;2023-05-21T01:24:59;100386.13;;;12.73;100.00
32131;BME280;18639;50.716;7.086;2023-05-21T01:27:27;100401.00;;;12.82;100.00
32131;BME280;18639;50.716;7.086;2023-05-21T01:29:52;100376.91;;;12.69;100.00
32131;BME280;18639;50.716;7.086;2023-05-21T01:32:32;100393.47;;;12.79;100.00
32131;BME280;18639;50.716;7.086;2023-05-21T01:35:09;100394.41;;;12.78;100.00
32131;BME280;18639;50.716;7.086;2023-05-21T01:37:58;100395.31;;;12.77;100.00
32131;BME280;18639;50.716;7.086;2023-05-21T01:40:38;100377.03;;;12.68;100.00
32131;BME280;18639;50.716;7.086;2023-05-21T01:43:05;100393.69;;;12.76;100.00
32131;BME280;18639;50.716;7.086;2023-05-21T01:45:31;100390.38;;;12.74;100.00
32131;BME280;18639;50.716;7.086;2023-05-21T01:47:57;100389.16;;;12.67;100.00
32131;BME280;18639;50.716;7.086;2023-05-21T01:50:23;100400.75;;;12.74;100.00
32131;BME280;18639;50.716;7.086;2023-05-21T01:52:56;100393.06;;;12.73;100.00
32131;BME280;18639;50.716;7.086;2023-05-21T01:55:22;100375.00;;;12.60;100.00
32131;BME280;18639;50.716;7.086;2023-05-21T01:57:54;100370.31;;;12.65;100.00
32131;BME280;18639;50.716;7.086;2023-05-21T02:00:21;100385.44;;;12.71;100.00
32131;BME280;18639;50.716;7.086;2023-05-21T02:02:47;100380.34;;;12.70;100.00
32131;BME280;18639;50.716;7.086;2023-05-21T02:05:12;100389.44;;;12.75;100.00
32131;BME280;18639;50.716;7.086;2023-05-21T02:07:38;100377.97;;;12.66;100.00
32131;BME280;18639;50.716;7.086;2023-05-21T02:10:04;100357.69;;;12.60;100.00
32131;BME280;18639;50.716;7.086;2023-05-21T02:12:30;100384.25;;;12.75;100.00
32131;BME280;18639;50.716;7.086;2023-05-21T02:14:55;100367.81;;;12.63;100.00
32131;BME280;18639;50.716;7.086;2023-05-21T02:17:21;100361.31;;;12.58;100.00
32131;BME280;18639;50.716;7.086;2023-05-21T02:19:48;100380.00;;;12.74;100.00
32131;BME280;18639;50.716;7.086;2023-05-21T02:22:13;100377.84;;;12.68;100.00
32131;BME280;18639;50.716;7.086;2023-05-21T02:24:39;100367.59;;;12.66;100.00
32131;BME280;18639;50.716;7.086;2023-05-21T02:27:05;100366.31;;;12.72;100.00
32131;BME280;18639;50.716;7.086;2023-05-21T02:29:31;100363.03;;;12.70;100.00
32131;BME280;18639;50.716;7.086;2023-05-21T02:31:56;100364.44;;;12.74;100.00
32131;BME280;18639;50.716;7.086;2023-05-21T02:34:21;100370.34;;;12.76;100.00
32131;BME280;18639;50.716;7.086;2023-05-21T02:36:46;100361.97;;;12.73;100.00
32131;BME280;18639;50.716;7.086;2023-05-21T02:39:13;100369.03;;;12.71;100.00
32131;BME280;18639;50.716;7.086;2023-05-21T02:41:39;100337.59;;;12.51;100.00
32131;BME280;18639;50.716;7.086;2023-05-21T02:44:05;100374.31;;;12.69;100.00
32131;BME280;18639;50.716;7.086;2023-05-21T02:46:30;100348.78;;;12.52;100.00
32131;BME280;18639;50.716;7.086;2023-05-21T02:48:55;100376.00;;;12.70;100.00
32131;BME280;18639;50.716;7.086;2023-05-21T02:51:21;100357.44;;;12.63;100.00
32131;BME280;18639;50.716;7.086;2023-05-21T02:53:47;100353.31;;;12.61;100.00
32131;BME280;18639;50.716;7.086;2023-05-21T02:56:12;100370.06;;;12.68;100.00
32131;BME280;18639;50.716;7.086;2023-05-21T02:58:37;100358.47;;;12.61;100.00
32131;BME280;18639;50.716;7.086;2023-05-21T03:01:03;100365.13;;;12.65;100.00
32131;BME280;18639;50.716;7.086;2023-05-21T03:03:28;100376.91;;;12.69;100.00
32131;BME280;18639;50.716;7.086;2023-05-21T03:05:53;100363.22;;;12.67;100.00
32131;BME280;18639;50.716;7.086;2023-05-21T03:08:18;100368.66;;;12.64;100.00
32131;BME280;18639;50.716;7.086;2023-05-21T03:10:44;100377.66;;;12.71;100.00
32131;BME280;18639;50.716;7.086;2023-05-21T03:13:09;100352.50;;;12.60;100.00
32131;BME280;18639;50.716;7.086;2023-05-21T03:15:34;100336.44;;;12.55;100.00
32131;BME280;18639;50.716;7.086;2023-05-21T03:18:00;100351.19;;;12.66;100.00
32131;BME280;18639;50.716;7.086;2023-05-21T03:20:25;100353.09;;;12.64;100.00
32131;BME280;18639;50.716;7.086;2023-05-21T03:22:52;100354.53;;;12.68;100.00
32131;BME280;18639;50.716;7.086;2023-05-21T03:25:19;100359.69;;;12.68;100.00
32131;BME280;18639;50.716;7.086;2023-05-21T03:27:45;100352.72;;;12.57;100.00
32131;BME280;18639;50.716;7.086;2023-05-21T03:30:11;100359.69;;;12.68;100.00
32131;BME280;18639;50.716;7.086;2023-05-21T03:32:36;100351.19;;;12.66;100.00
32131;BME280;18639;50.716;7.086;2023-05-21T03:35:03;100350.16;;;12.69;100.00
32131;BME280;18639;50.716;7.086;2023-05-21T03:37:28;100339.75;;;12.57;100.00
32131;BME280;18639;50.716;7.086;2023-05-21T03:39:54;100329.88;;;12.62;100.00
32131;BME280;18639;50.716;7.086;2023-05-21T03:42:19;100333.63;;;12.58;100.00
32131;BME280;18639;50.716;7.086;2023-05-21T03:44:44;100343.41;;;12.66;100.00
32131;BME280;18639;50.716;7.086;2023-05-21T03:47:10;100351.59;;;12.73;100.00
32131;BME280;18639;50.716;7.086;2023-05-21T03:49:35;100324.09;;;12.59;100.00
32131;BME280;18639;50.716;7.086;2023-05-21T03:52:00;100348.06;;;12.74;100.00
32131;BME280;18639;50.716;7.086;2023-05-21T03:54:25;100355.72;;;12.75;100.00
32131;BME280;18639;50.716;7.086;2023-05-21T03:56:51;100331.63;;;12.62;100.00
32131;BME280;18639;50.716;7.086;2023-05-21T03:59:16;100337.19;;;12.69;100.00
32131;BME280;18639;50.716;7.086;2023-05-21T04:01:41;100350.53;;;12.75;100.00
32131;BME280;18639;50.716;7.086;2023-05-21T04:04:07;100332.13;;;12.67;100.00
32131;BME280;18639;50.716;7.086;2023-05-21T04:06:32;100341.34;;;12.71;100.00
32131;BME280;18639;50.716;7.086;2023-05-21T04:08:58;100336.84;;;12.73;100.00
32131;BME280;18639;50.716;7.086;2023-05-21T04:11:23;100324.47;;;12.65;100.00
32131;BME280;18639;50.716;7.086;2023-05-21T04:13:48;100349.28;;;12.81;100.00
32131;BME280;18639;50.716;7.086;2023-05-21T04:16:14;100330.84;;;12.73;100.00
32131;BME280;18639;50.716;7.086;2023-05-21T04:18:43;100337.59;;;12.75;100.00
32131;BME280;18639;50.716;7.086;2023-05-21T04:21:09;100351.13;;;12.79;100.00
32131;BME280;18639;50.716;7.086;2023-05-21T04:23:34;100333.44;;;12.73;100.00
32131;BME280;18639;50.716;7.086;2023-05-21T04:26:00;100348.19;;;12.83;100.00
32131;BME280;18639;50.716;7.086;2023-05-21T04:28:26;100356.72;;;12.85;100.00
32131;BME280;18639;50.716;7.086;2023-05-21T04:30:53;100364.72;;;12.93;100.00
32131;BME280;18639;50.716;7.086;2023-05-21T04:33:20;100338.28;;;12.77;100.00
32131;BME280;18639;50.716;7.086;2023-05-21T04:35:45;100339.72;;;12.81;100.00
32131;BME280;18639;50.716;7.086;2023-05-21T04:38:14;100357.91;;;12.92;100.00
32131;BME280;18639;50.716;7.086;2023-05-21T04:40:45;100296.75;;;12.55;100.00
32131;BME280;18639;50.716;7.086;2023-05-21T04:43:11;100361.69;;;12.99;100.00
32131;BME280;18639;50.716;7.086;2023-05-21T04:45:36;100367.59;;;13.01;100.00
32131;BME280;18639;50.716;7.086;2023-05-21T04:48:02;100374.94;;;13.07;100.00
32131;BME280;18639;50.716;7.086;2023-05-21T04:50:27;100369.44;;;13.12;100.00
32131;BME280;18639;50.716;7.086;2023-05-21T04:52:57;100365.06;;;13.13;100.00
32131;BME280;18639;50.716;7.086;2023-05-21T04:55:22;100369.91;;;13.17;100.00
32131;BME280;18639;50.716;7.086;2023-05-21T04:57:48;100360.00;;;13.22;100.00
32131;BME280;18639;50.716;7.086;2023-05-21T05:00:13;100357.75;;;13.18;100.00
32131;BME280;18639;50.716;7.086;2023-05-21T05:02:38;100364.25;;;13.23;100.00
32131;BME280;18639;50.716;7.086;2023-05-21T05:05:04;100338.63;;;13.07;100.00
32131;BME280;18639;50.716;7.086;2023-05-21T05:07:29;100368.28;;;13.27;100.00
32131;BME280;18639;50.716;7.086;2023-05-21T05:09:55;100362.72;;;13.32;100.00
32131;BME280;18639;50.716;7.086;2023-05-21T05:12:20;100365.81;;;13.37;100.00
32131;BME280;18639;50.716;7.086;2023-05-21T05:14:45;100368.78;;;13.43;100.00
32131;BME280;18639;50.716;7.086;2023-05-21T05:17:11;100364.41;;;13.44;100.00
32131;BME280;18639;50.716;7.086;2023-05-21T05:19:39;100345.75;;;13.39;100.00
32131;BME280;18639;50.716;7.086;2023-05-21T05:22:05;100347.19;;;13.43;100.00
32131;BME280;18639;50.716;7.086;2023-05-21T05:24:30;100352.13;;;13.57;100.00
32131;BME280;18639;50.716;7.086;2023-05-21T05:26:56;100337.97;;;13.50;100.00
32131;BME280;18639;50.716;7.086;2023-05-21T05:29:21;100357.78;;;13.62;100.00
32131;BME280;18639;50.716;7.086;2023-05-21T05:31:46;100350.84;;;13.63;100.00
32131;BME280;18639;50.716;7.086;2023-05-21T05:34:11;100334.78;;;13.58;100.00
32131;BME280;18639;50.716;7.086;2023-05-21T05:36:37;100338.94;;;13.60;100.00
32131;BME280;18639;50.716;7.086;2023-05-21T05:39:02;100346.72;;;13.71;100.00
32131;BME280;18639;50.716;7.086;2023-05-21T05:41:27;100356.63;;;13.77;100.00
32131;BME280;18639;50.716;7.086;2023-05-21T05:43:52;100340.91;;;13.68;100.00
32131;BME280;18639;50.716;7.086;2023-05-21T05:46:18;100355.53;;;13.91;100.00
32131;BME280;18639;50.716;7.086;2023-05-21T05:48:43;100318.38;;;13.79;100.00
32131;BME280;18639;50.716;7.086;2023-05-21T05:51:08;100343.38;;;14.03;100.00
32131;BME280;18639;50.716;7.086;2023-05-21T05:53:33;100341.94;;;14.10;100.00
32131;BME280;18639;50.716;7.086;2023-05-21T05:55:59;100331.56;;;14.10;100.00
32131;BME280;18639;50.716;7.086;2023-05-21T05:58:24;100326.09;;;14.13;100.00
32131;BME280;18639;50.716;7.086;2023-05-21T06:00:50;100349.66;;;14.32;100.00
32131;BME280;18639;50.716;7.086;2023-05-21T06:03:16;100344.84;;;14.39;100.00
32131;BME280;18639;50.716;7.086;2023-05-21T06:05:42;100351.22;;;14.46;100.00
32131;BME280;18639;50.716;7.086;2023-05-21T06:08:07;100325.59;;;14.41;100.00
32131;BME280;18639;50.716;7.086;2023-05-21T06:10:32;100356.56;;;14.65;100.00
32131;BME280;18639;50.716;7.086;2023-05-21T06:12:58;100350.03;;;14.70;100.00
32131;BME280;18639;50.716;7.086;2023-05-21T06:15:23;100326.44;;;14.62;100.00
32131;BME280;18639;50.716;7.086;2023-05-21T06:17:48;100330.16;;;14.69;100.00
32131;BME280;18639;50.716;7.086;2023-05-21T06:20:14;100336.84;;;14.83;100.00
32131;BME280;18639;50.716;7.086;2023-05-21T06:22:40;100334.63;;;14.79;100.00
32131;BME280;18639;50.716;7.086;2023-05-21T06:25:06;100355.56;;;14.98;100.00
32131;BME280;18639;50.716;7.086;2023-05-21T06:27:32;100338.81;;;14.91;100.00
32131;BME280;18639;50.716;7.086;2023-05-21T06:29:57;100335.84;;;14.95;100.00
32131;BME280;18639;50.716;7.086;2023-05-21T06:32:23;100333.09;;;14.97;100.00
32131;BME280;18639;50.716;7.086;2023-05-21T06:34:49;100337.03;;;15.12;100.00
32131;BME280;18639;50.716;7.086;2023-05-21T06:37:18;100345.91;;;15.30;100.00
32131;BME280;18639;50.716;7.086;2023-05-21T06:39:44;100341.53;;;15.31;100.00
32131;BME280;18639;50.716;7.086;2023-05-21T06:42:10;100334.28;;;15.34;100.00
32131;BME280;18639;50.716;7.086;2023-05-21T06:44:35;100361.63;;;15.49;100.00
32131;BME280;18639;50.716;7.086;2023-05-21T06:47:01;100347.44;;;15.53;100.00
32131;BME280;18639;50.716;7.086;2023-05-21T06:49:26;100330.16;;;15.52;100.00
32131;BME280;18639;50.716;7.086;2023-05-21T06:51:51;100334.97;;;15.57;100.00
32131;BME280;18639;50.716;7.086;2023-05-21T06:54:16;100305.25;;;15.39;100.00
32131;BME280;18639;50.716;7.086;2023-05-21T06:56:42;100319.88;;;15.61;100.00
32131;BME280;18639;50.716;7.086;2023-05-21T06:59:07;100344.50;;;15.77;100.00
32131;BME280;18639;50.716;7.086;2023-05-21T07:01:33;100345.88;;;15.81;100.00
32131;BME280;18639;50.716;7.086;2023-05-21T07:03:58;100345.09;;;15.90;100.00
32131;BME280;18639;50.716;7.086;2023-05-21T07:06:23;100356.94;;;16.04;100.00
32131;BME280;18639;50.716;7.086;2023-05-21T07:08:49;100334.69;;;16.00;100.00
32131;BME280;18639;50.716;7.086;2023-05-21T07:11:14;100357.81;;;16.24;100.00
32131;BME280;18639;50.716;7.086;2023-05-21T07:13:40;100335.13;;;16.15;100.00
32131;BME280;18639;50.716;7.086;2023-05-21T07:16:05;100347.91;;;16.27;100.00
32131;BME280;18639;50.716;7.086;2023-05-21T07:18:31;100322.97;;;16.34;100.00
32131;BME280;18639;50.716;7.086;2023-05-21T07:20:56;100339.75;;;16.61;100.00
32131;BME280;18639;50.716;7.086;2023-05-21T07:23:21;100350.03;;;16.72;100.00
32131;BME280;18639;50.716;7.086;2023-05-21T07:25:46;100321.88;;;16.66;100.00
32131;BME280;18639;50.716;7.086;2023-05-21T07:28:12;100350.97;;;16.90;100.00
32131;BME280;18639;50.716;7.086;2023-05-21T07:30:37;100345.59;;;17.01;100.00
32131;BME280;18639;50.716;7.086;2023-05-21T07:33:02;100330.72;;;17.11;100.00
32131;BME280;18639;50.716;7.086;2023-05-21T07:35:28;100337.72;;;17.20;100.00
32131;BME280;18639;50.716;7.086;2023-05-21T07:37:53;100328.88;;;17.31;100.00
32131;BME280;18639;50.716;7.086;2023-05-21T07:40:18;100324.88;;;17.46;100.00
32131;BME280;18639;50.716;7.086;2023-05-21T07:42:43;100322.44;;;17.72;100.00
32131;BME280;18639;50.716;7.086;2023-05-21T07:45:09;100350.84;;;18.12;100.00
32131;BME280;18639;50.716;7.086;2023-05-21T07:47:34;100355.66;;;18.34;100.00
32131;BME280;18639;50.716;7.086;2023-05-21T07:50:00;100321.72;;;18.25;100.00
32131;BME280;18639;50.716;7.086;2023-05-21T07:52:25;100339.41;;;18.58;100.00
32131;BME280;18639;50.716;7.086;2023-05-21T07:54:50;100331.56;;;18.48;100.00
32131;BME280;18639;50.716;7.086;2023-05-21T07:57:15;100340.38;;;18.57;100.00
32131;BME280;18639;50.716;7.086;2023-05-21T07:59:41;100340.72;;;18.62;100.00
32131;BME280;18639;50.716;7.086;2023-05-21T08:02:06;100353.72;;;18.72;100.00
32131;BME280;18639;50.716;7.086;2023-05-21T08:04:31;100345.81;;;18.64;100.00
32131;BME280;18639;50.716;7.086;2023-05-21T08:06:56;100317.69;;;18.48;100.00
32131;BME280;18639;50.716;7.086;2023-05-21T08:09:22;100319.53;;;18.38;100.00
32131;BME280;18639;50.716;7.086;2023-05-21T08:11:47;100336.16;;;18.46;100.00
32131;BME280;18639;50.716;7.086;2023-05-21T08:14:12;100337.09;;;18.45;100.00
32131;BME280;18639;50.716;7.086;2023-05-21T08:16:38;100331.59;;;18.31;100.00
32131;BME280;18639;50.716;7.086;2023-05-21T08:19:03;100341.22;;;18.30;100.00
32131;BME280;18639;50.716;7.086;2023-05-21T08:21:28;100299.75;;;17.90;100.00
32131;BME280;18639;50.716;7.086;2023-05-21T08:23:54;100330.28;;;17.99;100.00
32131;BME280;18639;50.716;7.086;2023-05-21T08:26:19;100343.28;;;18.09;100.00
32131;BME280;18639;50.716;7.086;2023-05-21T08:28:45;100338.19;;;18.07;100.00
32131;BME280;18639;50.716;7.086;2023-05-21T08:31:11;100317.59;;;18.04;100.00
32131;BME280;18639;50.716;7.086;2023-05-21T08:33:37;100327.22;;;18.39;100.00
32131;BME280;18639;50.716;7.086;2023-05-21T08:36:06;100316.13;;;18.55;100.00
32131;BME280;18639;50.716;7.086;2023-05-21T08:38:32;100322.31;;;18.72;100.00
32131;BME280;18639;50.716;7.086;2023-05-21T08:40:58;100336.22;;;18.90;100.00
32131;BME280;18639;50.716;7.086;2023-05-21T08:43:26;100342.69;;;19.04;100.00
32131;BME280;18639;50.716;7.086;2023-05-21T08:45:54;100332.81;;;19.23;100.00
32131;BME280;18639;50.716;7.086;2023-05-21T08:48:21;100331.91;;;19.32;100.00
32131;BME280;18639;50.716;7.086;2023-05-21T08:50:49;100308.47;;;19.31;98.01
32131;BME280;18639;50.716;7.086;2023-05-21T08:53:15;100313.19;;;19.53;99.34
32131;BME280;18639;50.716;7.086;2023-05-21T08:55:41;100325.47;;;19.87;100.00
32131;BME280;18639;50.716;7.086;2023-05-21T08:58:08;100333.28;;;19.79;96.39
32131;BME280;18639;50.716;7.086;2023-05-21T09:00:33;100305.13;;;19.89;99.69
32131;BME280;18639;50.716;7.086;2023-05-21T09:02:59;100329.00;;;20.28;93.87
32131;BME280;18639;50.716;7.086;2023-05-21T09:05:26;100329.50;;;20.31;93.50
32131;BME280;18639;50.716;7.086;2023-05-21T09:07:58;100329.88;;;20.44;92.22
32131;BME280;18639;50.716;7.086;2023-05-21T09:10:35;100305.41;;;20.52;96.39
32131;BME280;18639;50.716;7.086;2023-05-21T09:13:01;100336.91;;;20.84;91.12
32131;BME280;18639;50.716;7.086;2023-05-21T09:15:27;100322.47;;;20.96;88.80
32131;BME280;18639;50.716;7.086;2023-05-21T09:17:52;100303.78;;;20.83;87.41
32131;BME280;18639;50.716;7.086;2023-05-21T09:20:23;100301.63;;;20.87;90.99
32131;BME280;18639;50.716;7.086;2023-05-21T09:22:49;100324.59;;;21.09;87.85
32131;BME280;18639;50.716;7.086;2023-05-21T09:25:19;100301.56;;;21.11;89.08
32131;BME280;18639;50.716;7.086;2023-05-21T09:27:45;100294.19;;;21.31;89.14
32131;BME280;18639;50.716;7.086;2023-05-21T09:30:14;100301.44;;;21.68;89.56
32131;BME280;18639;50.716;7.086;2023-05-21T09:32:40;100304.84;;;22.07;86.52
32131;BME280;18639;50.716;7.086;2023-05-21T09:35:07;100312.53;;;22.40;82.73
32131;BME280;18639;50.716;7.086;2023-05-21T09:37:38;100283.75;;;22.38;80.58
32131;BME280;18639;50.716;7.086;2023-05-21T09:40:14;100304.97;;;22.82;81.49
32131;BME280;18639;50.716;7.086;2023-05-21T09:42:42;100303.81;;;23.14;73.39
32131;BME280;18639;50.716;7.086;2023-05-21T09:45:10;100302.53;;;23.25;73.87
32131;BME280;18639;50.716;7.086;2023-05-21T09:47:43;100286.09;;;23.52;74.34
32131;BME280;18639;50.716;7.086;2023-05-21T09:50:10;100300.53;;;24.07;68.93
32131;BME280;18639;50.716;7.086;2023-05-21T09:52:36;100303.09;;;24.57;67.26
32131;BME280;18639;50.716;7.086;2023-05-21T09:55:05;100286.50;;;24.70;67.04
32131;BME280;18639;50.716;7.086;2023-05-21T09:57:31;100289.06;;;25.12;66.98
32131;BME280;18639;50.716;7.086;2023-05-21T09:59:57;100282.28;;;25.31;61.53
32131;BME280;18639;50.716;7.086;2023-05-21T10:02:24;100280.66;;;25.78;61.42
32131;BME280;18639;50.716;7.086;2023-05-21T10:04:52;100261.13;;;25.92;57.56
32131;BME280;18639;50.716;7.086;2023-05-21T10:07:20;100265.25;;;26.14;55.55
32131;BME280;18639;50.716;7.086;2023-05-21T10:09:53;100270.09;;;25.97;57.37
32131;BME280;18639;50.716;7.086;2023-05-21T10:12:22;100265.56;;;25.72;58.77
32131;BME280;18639;50.716;7.086;2023-05-21T10:15:02;100247.63;;;25.80;58.47
32131;BME280;18639;50.716;7.086;2023-05-21T10:17:29;100246.25;;;25.97;58.37
32131;BME280;18639;50.716;7.086;2023-05-21T10:19:58;100244.25;;;26.19;57.48
32131;BME280;18639;50.716;7.086;2023-05-21T10:22:25;100249.41;;;26.27;57.67
32131;BME280;18639;50.716;7.086;2023-05-21T10:24:54;100242.44;;;26.07;57.28
32131;BME280;18639;50.716;7.086;2023-05-21T10:27:19;100247.50;;;26.08;54.47
32131;BME280;18639;50.716;7.086;2023-05-21T10:29:47;100251.84;;;26.22;55.69
32131;BME280;18639;50.716;7.086;2023-05-21T10:32:14;100254.66;;;26.21;57.15
32131;BME280;18639;50.716;7.086;2023-05-21T10:34:42;100248.16;;;26.36;57.64
32131;BME280;18639;50.716;7.086;2023-05-21T10:37:07;100239.22;;;26.44;58.07
32131;BME280;18639;50.716;7.086;2023-05-21T10:39:34;100228.56;;;26.05;55.11
32131;BME280;18639;50.716;7.086;2023-05-21T10:42:12;100235.50;;;26.06;60.85
32131;BME280;18639;50.716;7.086;2023-05-21T10:47:44;100240.97;;;25.43;56.92
32131;BME280;18639;50.716;7.086;2023-05-21T10:50:32;100253.94;;;25.25;56.10
32131;BME280;18639;50.716;7.086;2023-05-21T10:53:12;100250.19;;;24.79;57.34
32131;BME280;18639;50.716;7.086;2023-05-21T11:00:58;100220.25;;;23.80;61.89
32131;BME280;18639;50.716;7.086;2023-05-21T11:03:24;100212.22;;;23.52;64.47
32131;BME280;18639;50.716;7.086;2023-05-21T11:05:53;100228.06;;;23.52;66.57
32131;BME280;18639;50.716;7.086;2023-05-21T11:08:27;100218.25;;;23.17;67.64
32131;BME280;18639;50.716;7.086;2023-05-21T11:10:55;100161.44;;;22.70;69.34
32131;BME280;18639;50.716;7.086;2023-05-21T11:13:23;100208.38;;;22.89;69.86
32131;BME280;18639;50.716;7.086;2023-05-21T11:21:13;100211.41;;;22.49;76.23
32131;BME280;18639;50.716;7.086;2023-05-21T11:23:59;100218.38;;;22.42;75.59
32131;BME280;18639;50.716;7.086;2023-05-21T11:26:28;100209.91;;;22.32;76.00
32131;BME280;18639;50.716;7.086;2023-05-21T11:29:09;100228.91;;;22.42;77.78
32131;BME280;18639;50.716;7.086;2023-05-21T11:31:35;100198.09;;;22.28;76.60
32131;BME280;18639;50.716;7.086;2023-05-21T11:36:43;100214.38;;;22.46;75.92
32131;BME280;18639;50.716;7.086;2023-05-21T11:39:16;100203.56;;;22.55;77.44
32131;BME280;18639;50.716;7.086;2023-05-21T11:41:56;100203.78;;;22.68;77.33
32131;BME280;18639;50.716;7.086;2023-05-21T11:44:39;100215.44;;;22.74;74.20
32131;BME280;18639;50.716;7.086;2023-05-21T11:47:06;100212.66;;;22.76;75.01
32131;BME280;18639;50.716;7.086;2023-05-21T11:49:32;100182.50;;;22.41;74.20
32131;BME280;18639;50.716;7.086;2023-05-21T11:51:59;100203.22;;;22.58;77.16
32131;BME280;18639;50.716;7.086;2023-05-21T11:54:25;100199.22;;;22.62;75.53
32131;BME280;18639;50.716;7.086;2023-05-21T11:56:53;100179.31;;;22.45;75.87
32131;BME280;18639;50.716;7.086;2023-05-21T11:59:19;100171.59;;;22.44;77.47
32131;BME280;18639;50.716;7.086;2023-05-21T12:01:44;100204.06;;;22.59;78.46
32131;BME280;18639;50.716;7.086;2023-05-21T12:04:10;100174.97;;;22.52;75.88
32131;BME280;18639;50.716;7.086;2023-05-21T12:06:37;100178.59;;;22.51;77.01
32131;BME280;18639;50.716;7.086;2023-05-21T12:09:02;100180.69;;;22.41;75.77
32131;BME280;18639;50.716;7.086;2023-05-21T12:11:28;100194.22;;;22.38;74.39
32131;BME280;18639;50.716;7.086;2023-05-21T12:13:54;100194.16;;;22.23;74.24
32131;BME280;18639;50.716;7.086;2023-05-21T12:16:19;100167.34;;;22.05;74.71
32131;BME280;18639;50.716;7.086;2023-05-21T12:18:44;100190.53;;;22.24;75.67
32131;BME280;18639;50.716;7.086;2023-05-21T12:21:10;100189.38;;;22.27;74.84
32131;BME280;18639;50.716;7.086;2023-05-21T12:23:35;100191.34;;;22.25;74.98
32131;BME280;18639;50.716;7.086;2023-05-21T12:26:00;100156.03;;;22.19;76.42
32131;BME280;18639;50.716;7.086;2023-05-21T12:28:27;100174.69;;;22.47;78.48
32131;BME280;18639;50.716;7.086;2023-05-21T12:30:53;100180.63;;;22.64;78.96
32131;BME280;18639;50.716;7.086;2023-05-21T12:33:18;100151.25;;;22.52;77.08
32131;BME280;18639;50.716;7.086;2023-05-21T12:35:45;100182.56;;;22.85;76.23
32131;BME280;18639;50.716;7.086;2023-05-21T12:38:13;100186.63;;;22.87;72.73
32131;BME280;18639;50.716;7.086;2023-05-21T12:40:39;100143.91;;;22.62;71.63
32131;BME280;18639;50.716;7.086;2023-05-21T12:43:05;100163.28;;;22.84;73.79
32131;BME280;18639;50.716;7.086;2023-05-21T12:45:33;100173.00;;;22.98;75.46
32131;BME280;18639;50.716;7.086;2023-05-21T12:48:01;100150.28;;;22.83;75.34
32131;BME280;18639;50.716;7.086;2023-05-21T12:50:27;100157.56;;;22.95;71.07
32131;BME280;18639;50.716;7.086;2023-05-21T12:52:53;100127.94;;;22.79;72.35
32131;BME280;18639;50.716;7.086;2023-05-21T12:55:23;100174.72;;;23.06;70.38
32131;BME280;18639;50.716;7.086;2023-05-21T12:57:59;100158.13;;;22.91;71.34